Date,TemperatureHighF,TemperatureAvgF,TemperatureLowF,DewpointHighF,DewpointAvgF,DewpointLowF,HumidityHigh,HumidityAvg,HumidityLow,PressureMaxIn,PressureMinIn,WindSpeedMaxMPH,WindSpeedAvgMPH,GustSpeedMaxMPH,PrecipitationSumIn
2013-1-1,36.0,23.7,16.2,21.2,8.6,3.2,63,54,47,30.15,29.97,8,2,13,0.00
2013-1-2,42.6,24.1,10.2,32.0,9.1,-0.4,59,47,31,30.21,30.09,6,1,8,0.00
2013-1-3,40.3,25.0,9.7,32.0,8.8,-2.2,55,41,30,30.21,30.00,7,3,13,0.00
2013-1-4,46.6,29.5,19.2,15.8,6.6,-2.2,48,39,27,30.09,29.97,5,2,9,0.00
2013-1-5,47.7,24.7,14.2,23.0,7.4,1.4,66,50,33,30.18,30.00,5,1,8,0.00
2013-1-6,41.4,30.2,14.4,15.8,10.2,1.4,64,44,33,30.00,29.80,6,2,13,1.07
2013-1-7,46.9,31.9,19.9,21.2,13.9,5.0,65,49,37,29.88,29.59,4,0,5,0.00
2013-1-8,50.4,39.1,25.9,23.0,11.4,-11.2,50,36,8,29.94,29.62,10,2,17,0.00
2013-1-9,58.8,41.7,23.9,28.4,18.3,8.6,64,40,17,29.91,29.62,5,1,9,0.00
2013-1-10,56.1,32.9,7.0,28.7,17.8,-4.7,68,55,32,29.97,29.47,14,2,14,1.07
2013-1-11,21.0,14.8,9.1,32.0,9.7,-0.4,69,61,53,30.03,29.62,10,2,10,0.00
2013-1-12,72.1,10.9,-0.9,50.0,25.6,-11.2,57,52,39,30.06,26.81,5,1,7,0.25
2013-1-13,27.1,11.4,4.5,32.0,24.6,-2.2,55,48,43,30.12,30.03,6,2,11,0.00
2013-1-14,24.6,15.0,8.1,32.0,13.7,-2.2,51,47,40,30.09,29.91,7,3,13,0.00
2013-1-15,33.8,25.4,19.0,15.8,9.8,1.4,64,53,47,30.03,29.88,7,4,15,0.00
2013-1-16,47.5,33.6,26.6,23.0,14.6,10.4,52,46,37,30.18,29.94,6,3,12,0.00
2013-1-17,48.2,34.4,28.6,21.2,14.1,10.4,52,42,37,30.21,29.94,7,3,11,0.00
2013-1-18,58.5,40.6,28.6,24.8,16.1,8.6,59,38,15,29.97,29.83,6,2,10,0.00
2013-1-19,48.7,34.1,20.7,26.6,18.5,10.4,78,55,40,30.18,29.91,5,1,8,0.00
2013-1-20,33.8,24.0,17.4,19.4,11.0,5.0,81,59,51,30.36,30.00,5,2,12,0.00
2013-1-21,38.7,27.3,13.6,32.0,11.9,1.4,70,51,41,30.18,26.81,5,1,8,0.00
2013-1-22,50.7,28.4,10.4,32.0,21.1,5.0,79,53,29,30.03,26.05,5,0,7,0.00
2013-1-23,30.2,23.6,20.7,14.0,9.8,8.6,63,58,51,30.09,25.34,3,2,7,0.00
2013-1-24,56.7,37.9,19.6,30.2,17.7,10.4,70,46,31,30.03,26.61,8,1,14,0.00
2013-1-25,54.1,34.2,21.9,32.0,19.9,12.2,78,58,37,30.00,29.83,3,0,6,0.00
2013-1-26,61.0,48.3,29.5,32.0,25.8,17.6,72,43,29,29.85,29.59,4,1,8,0.00
2013-1-27,37.4,32.1,26.4,33.8,27.7,17.6,88,84,67,29.83,29.62,3,0,6,0.00
2013-1-28,37.4,29.6,0.0,26.6,21.3,8.6,89,74,31,31.63,26.05,4,0,5,0.08
2013-1-29,30.0,22.7,12.6,32.0,13.4,-4.0,63,50,43,31.60,7.56,5,2,8,0.00
2013-1-30,35.1,28.2,12.6,32.0,21.5,14.0,84,67,46,32.87,7.56,6,2,8,0.00
2013-1-31,29.8,18.1,5.2,32.0,18.7,-0.4,76,62,48,30.09,29.85,6,1,9,0.00
2013-2-1,50.0,38.8,29.7,30.2,22.8,17.6,70,54,39,30.03,25.40,7,2,11,0.08
2013-2-2,53.2,35.3,21.0,28.4,18.5,12.2,77,51,36,32.78,24.57,7,2,8,0.00
2013-2-3,54.5,38.4,0.0,27.5,17.7,-9.2,54,44,7,29.88,7.56,10,2,10,0.00
2013-2-4,56.5,41.6,28.8,24.8,19.4,14.9,57,42,23,29.80,29.65,9,2,12,0.00
2013-2-5,55.8,40.9,29.5,30.2,21.8,15.8,63,47,36,29.83,29.59,4,1,7,0.00
2013-2-6,57.0,37.5,25.5,28.4,10.3,-11.2,72,40,6,29.91,29.62,9,1,17,0.00
2013-2-7,51.1,32.3,19.2,24.8,17.0,8.6,79,56,32,29.94,29.77,4,0,7,0.02
2013-2-8,46.3,31.2,21.2,23.6,21.0,18.6,91,69,34,30.05,29.94,1,0,6,0.00
2013-2-9,45.7,30.5,17.9,27.9,21.8,16.0,93,72,39,30.03,7.56,3,0,13,0.00
2013-2-10,31.0,26.4,15.2,27.6,19.8,13.0,92,77,51,30.30,29.94,5,1,16,0.00
2013-2-11,34.4,21.5,7.3,17.5,11.5,3.8,92,67,46,30.28,30.13,4,1,14,0.01
2013-2-12,43.7,29.8,20.7,20.2,13.6,9.3,66,51,36,30.24,30.01,3,1,14,0.01
2013-2-13,52.1,35.6,29.6,33.1,22.4,14.1,89,60,33,30.23,29.95,7,1,18,0.03
2013-2-14,34.7,29.4,26.0,26.0,20.5,13.2,91,71,42,30.45,30.24,4,1,15,0.00
2013-2-15,44.6,32.0,24.5,29.1,23.9,20.9,92,73,45,30.51,30.26,3,1,10,0.05
2013-2-16,53.6,38.7,27.6,26.7,22.7,19.6,73,54,35,30.27,29.79,3,1,14,0.00
2013-2-17,45.9,37.3,30.4,29.8,23.9,16.6,75,59,32,30.05,29.70,7,2,20,0.00
2013-2-18,39.5,29.8,21.1,26.6,20.9,15.7,91,70,47,30.22,30.05,1,0,7,0.02
2013-2-19,32.5,22.6,15.2,20.6,16.2,12.5,90,77,55,30.16,29.92,1,0,5,0.00
2013-2-20,33.6,25.0,16.4,20.1,17.3,14.2,93,73,53,30.07,29.96,2,0,9,0.00
2013-2-21,40.7,28.1,21.8,26.4,21.1,17.7,91,76,47,30.12,30.00,1,0,6,0.04
2013-2-22,45.4,32.2,24.4,20.3,17.3,11.5,78,57,26,30.06,29.74,3,1,12,0.00
2013-2-23,39.8,32.5,25.3,31.5,23.4,15.4,93,70,39,30.09,29.67,5,0,15,0.01
2013-2-24,32.1,27.8,21.9,24.4,19.9,16.5,81,72,64,30.26,30.09,2,0,9,0.00
2013-2-25,48.4,35.7,21.8,22.3,16.9,13.5,80,49,27,30.11,29.87,3,1,14,0.00
2013-2-26,43.2,33.9,30.0,21.8,16.5,13.7,59,49,31,30.12,29.98,3,1,11,0.00
2013-2-27,49.1,33.5,18.6,20.2,16.4,12.2,84,53,25,30.36,30.24,2,0,10,0.00
2013-2-28,51.3,38.1,25.5,21.8,17.2,14.7,71,44,25,30.36,30.21,4,1,15,0.00
2013-3-1,61.6,43.2,25.7,29.8,23.9,17.4,75,49,29,30.35,30.19,5,1,16,0.00
2013-3-2,63.6,47.5,36.5,30.8,28.2,25.3,69,49,26,30.25,29.85,4,1,16,0.00
2013-3-3,57.5,37.0,27.1,32.7,27.6,14.2,93,70,38,29.94,29.50,8,1,22,0.00
2013-3-4,32.6,24.3,14.3,15.7,12.4,9.7,82,61,40,30.53,29.94,6,3,21,0.00
2013-3-5,34.0,21.9,9.9,21.7,14.6,6.5,88,74,53,30.52,30.24,2,0,7,0.00
2013-3-6,37.7,26.8,14.8,25.7,20.4,12.9,94,78,59,30.24,29.86,2,0,7,0.07
2013-3-7,55.5,39.7,24.7,28.9,25.8,12.1,90,62,18,30.09,29.91,2,0,13,0.11
2013-3-8,48.7,37.4,27.4,28.5,26.8,24.1,88,67,44,30.08,29.89,2,0,8,0.00
2013-3-9,49.7,34.9,22.5,25.7,19.8,15.0,93,60,28,30.35,29.99,6,1,18,0.00
2013-3-10,60.1,39.6,18.3,24.6,17.7,14.2,87,49,18,30.34,30.03,5,1,13,0.00
2013-3-11,47.5,41.9,35.3,26.1,22.9,16.6,61,47,29,30.08,30.03,3,1,10,0.00
2013-3-12,50.7,38.9,22.4,24.2,20.9,16.4,90,51,29,30.40,30.11,1,0,7,0.00
2013-3-13,70.3,49.4,27.8,29.1,25.2,22.1,80,45,19,30.18,30.05,6,2,17,0.00
2013-3-14,46.2,43.1,38.5,29.0,28.3,27.3,64,56,49,30.14,30.12,0,0,1,0.00
2013-3-15,68.5,50.8,36.4,31.3,26.8,18.1,74,45,16,30.04,29.83,6,2,21,0.00
2013-3-16,52.9,38.7,27.1,28.9,26.0,22.1,85,63,39,30.06,29.72,3,1,11,0.00
2013-3-17,43.8,34.3,22.8,29.4,16.5,5.4,87,52,21,30.03,29.53,7,2,21,0.00
2013-3-18,44.4,30.2,16.7,18.6,10.9,0.8,78,49,17,30.10,29.92,6,1,19,0.00
2013-3-19,40.4,30.6,25.2,23.5,18.9,15.6,87,63,38,30.40,30.10,2,0,9,0.00
2013-3-20,130.8,36.3,17.8,22.8,18.1,13.5,85,54,21,30.33,29.60,3,0,7,0.00
2013-3-21,49.1,40.3,30.0,31.7,17.5,5.1,80,44,19,29.95,29.58,5,1,16,0.00
2013-3-22,35.9,26.5,17.0,27.1,15.9,7.4,87,65,34,30.30,29.94,2,0,10,0.02
2013-3-23,36.7,25.4,14.5,14.3,8.5,0.7,83,53,23,30.44,30.31,3,1,11,0.01
2013-3-24,37.4,22.8,11.9,12.2,9.4,3.8,86,60,25,30.50,30.41,3,0,11,0.00
2013-3-25,50.7,30.1,10.4,15.0,8.9,4.7,80,48,16,30.47,30.14,2,0,6,0.00
2013-3-26,57.1,39.2,23.0,21.8,15.4,10.4,64,41,21,30.15,29.98,3,0,9,0.00
2013-3-27,64.5,43.9,21.5,23.9,18.4,12.9,70,40,16,30.10,29.95,3,0,8,0.00
2013-3-28,66.4,46.7,26.3,28.5,23.7,19.5,76,45,21,30.12,29.96,2,0,7,0.00
2013-3-29,65.4,48.7,34.9,40.1,30.4,22.4,84,52,27,30.12,30.00,4,0,16,0.00
2013-3-30,62.4,49.9,37.9,39.1,27.9,19.5,86,48,21,30.16,30.05,5,1,17,0.00
2013-3-31,60.7,45.5,29.5,27.5,23.1,20.3,72,44,25,30.16,30.00,5,1,17,0.00
2013-4-1,60.7,43.8,24.9,27.1,22.6,19.6,81,47,23,30.21,30.08,4,1,12,0.00
2013-4-2,70.7,48.9,25.9,27.1,22.3,17.8,75,41,14,30.15,29.87,2,0,7,0.00
2013-4-3,70.1,52.4,36.6,31.9,27.6,22.8,68,41,20,30.08,29.89,4,1,14,0.00
2013-4-4,59.3,47.7,36.3,32.1,29.4,25.3,72,51,34,30.09,29.78,3,1,10,0.00
2013-4-5,62.9,51.7,42.2,45.7,34.8,30.1,80,53,32,29.77,29.65,4,1,11,0.05
2013-4-6,66.8,50.5,33.8,40.3,32.3,25.3,83,54,23,29.84,29.69,5,1,16,0.00
2013-4-7,65.5,48.7,35.2,42.6,37.2,29.9,92,68,31,29.78,29.48,4,1,12,0.49
2013-4-8,35.2,24.8,21.0,33.1,21.1,17.3,93,86,77,30.49,29.69,3,1,13,0.00
2013-4-9,31.3,24.4,19.4,18.2,15.6,10.8,89,70,47,30.64,30.48,2,0,6,0.02
2013-4-10,19.8,18.1,16.8,15.9,14.9,13.9,90,87,83,30.50,30.42,0,0,0,0.00
2013-4-11,58.2,46.8,34.5,34.6,29.3,22.0,75,52,30,29.93,29.83,6,2,19,0.00
2013-4-12,53.2,45.6,35.7,36.5,23.8,16.6,87,44,24,30.07,29.72,3,1,12,0.00
2013-4-13,47.9,39.7,37.2,31.2,26.9,23.9,66,60,49,29.72,29.38,1,0,6,0.00
2013-6-14,74.8,68.9,65.7,56.0,52.7,50.6,59,56,52,30.11,30.11,1,1,3,0.09